Time;durP1;ratioP1;P1;durP2;ratioP2;P2;SDS_P1;SDS_P2;PMS_P1;PMS_P2;Temp;Humidity;BMP_temperature;BMP_pressure;BME280_temperature;BME280_humidity;BME280_pressure;Samples;Min_cycle;Max_cycle;Signal;HPM_P1;HPM_P2
2022/07/02 00:00:20;;;;;;;8.35;5.55;;;14.30;74.20;;;;;;4093657;28;114273;-58
2022/07/02 00:02:25;;;;;;;11.90;7.03;;;14.20;74.20;;;;;;4094754;28;113735;-58
2022/07/02 00:04:35;;;;;;;8.18;5.75;;;14.20;74.30;;;;;;4093738;28;113906;-59
2022/07/02 00:06:42;;;;;;;14.25;7.05;;;14.20;74.60;;;;;;4093643;28;117065;-59
2022/07/02 00:08:47;;;;;;;9.63;6.70;;;14.20;74.70;;;;;;4092991;28;114600;-60
2022/07/02 00:10:51;;;;;;;12.15;7.05;;;14.10;74.70;;;;;;4095342;28;113507;-59
2022/07/02 00:12:54;;;;;;;11.98;6.43;;;14.10;74.70;;;;;;4095444;28;113902;-59
2022/07/02 00:14:59;;;;;;;8.15;6.07;;;14.10;74.80;;;;;;4092421;28;113963;-59
2022/07/02 00:17:03;;;;;;;10.95;5.78;;;14.10;74.60;;;;;;4094040;28;114357;-59
2022/07/02 00:19:06;;;;;;;12.25;5.70;;;14.10;74.70;;;;;;4094223;28;113429;-60
2022/07/02 00:21:11;;;;;;;10.73;4.97;;;14.00;74.90;;;;;;4093974;28;114230;-59
2022/07/02 00:23:15;;;;;;;12.88;5.93;;;14.10;75.00;;;;;;4095323;28;114206;-59
2022/07/02 00:25:18;;;;;;;14.55;6.15;;;14.00;74.80;;;;;;4094826;28;114929;-59
2022/07/02 00:27:21;;;;;;;8.32;5.38;;;14.00;75.10;;;;;;4093161;28;114546;-59
2022/07/02 00:29:34;;;;;;;9.95;5.55;;;13.90;75.10;;;;;;4095176;28;114252;-60
2022/07/02 00:31:39;;;;;;;9.93;6.45;;;13.90;75.20;;;;;;4093725;28;113609;-59
2022/07/02 00:33:45;;;;;;;12.43;5.88;;;13.90;75.20;;;;;;4094989;28;114610;-59
2022/07/02 00:35:48;;;;;;;13.68;7.47;;;13.90;75.40;;;;;;4093446;28;113397;-59
2022/07/02 00:37:57;;;;;;;21.52;7.75;;;13.90;75.20;;;;;;4095098;28;113945;-58
2022/07/02 00:40:00;;;;;;;19.65;6.55;;;13.90;75.40;;;;;;4094790;28;113577;-59
2022/07/02 00:42:04;;;;;;;17.80;6.38;;;13.90;75.40;;;;;;4090103;28;113359;-60
2022/07/02 00:44:08;;;;;;;14.10;5.57;;;13.90;75.30;;;;;;4093688;28;115069;-59
2022/07/02 00:46:13;;;;;;;14.07;6.18;;;13.90;75.40;;;;;;4094153;28;114200;-59
2022/07/02 00:48:16;;;;;;;11.52;5.30;;;13.90;75.50;;;;;;4095414;28;113919;-59
2022/07/02 00:50:19;;;;;;;11.98;6.03;;;13.80;75.50;;;;;;4094329;28;114173;-59
2022/07/02 00:52:23;;;;;;;12.18;5.65;;;13.80;75.60;;;;;;4095059;28;114240;-59
2022/07/02 00:54:28;;;;;;;12.98;4.53;;;13.70;75.60;;;;;;4094215;28;114707;-59
2022/07/02 00:56:32;;;;;;;8.93;4.50;;;13.70;75.90;;;;;;4095030;28;113882;-59
2022/07/02 00:58:35;;;;;;;15.77;5.38;;;13.70;76.00;;;;;;4093560;28;113934;-59
2022/07/02 01:00:38;;;;;;;8.68;4.38;;;13.70;76.10;;;;;;4094619;28;115258;-58
2022/07/02 01:02:44;;;;;;;11.75;4.78;;;13.60;76.10;;;;;;4093640;28;114725;-59
2022/07/02 01:04:50;;;;;;;11.40;5.15;;;13.60;76.40;;;;;;4093523;28;114598;-59
2022/07/02 01:06:54;;;;;;;9.35;5.18;;;13.60;76.60;;;;;;4094717;28;115958;-59
2022/07/02 01:11:26;;;;;;;11.48;7.60;;;13.60;76.60;;;;;;4094930;28;114577;-60
2022/07/02 01:13:33;;;;;;;10.57;4.75;;;13.60;76.70;;;;;;4093577;28;114014;-59
2022/07/02 01:15:38;;;;;;;7.88;4.82;;;13.60;77.00;;;;;;4094191;28;114335;-60
2022/07/02 01:17:41;;;;;;;11.48;5.25;;;13.50;77.10;;;;;;4093965;28;114281;-59
2022/07/02 01:19:45;;;;;;;8.07;4.65;;;13.50;77.00;;;;;;4094218;28;114191;-59
2022/07/02 01:22:13;;;;;;;8.75;4.40;;;13.50;77.00;;;;;;4092710;28;114997;-59
2022/07/02 01:24:24;;;;;;;8.40;4.78;;;13.50;78.20;;;;;;4094333;28;115046;-59
2022/07/02 01:26:27;;;;;;;9.82;4.38;;;13.40;77.80;;;;;;4094673;28;114269;-59
2022/07/02 01:28:31;;;;;;;10.18;4.97;;;13.40;77.10;;;;;;4093874;28;114001;-59
2022/07/02 01:30:34;;;;;;;8.75;4.22;;;13.40;77.20;;;;;;4093287;28;115527;-59
2022/07/02 01:32:37;;;;;;;17.08;5.90;;;13.40;77.50;;;;;;4095692;28;115049;-59
2022/07/02 01:34:42;;;;;;;12.38;5.00;;;13.40;77.60;;;;;;4096556;28;114288;-59
2022/07/02 01:36:45;;;;;;;12.82;4.80;;;13.40;77.60;;;;;;4111396;28;114433;-59
2022/07/02 01:38:51;;;;;;;10.55;4.65;;;13.40;77.60;;;;;;4098799;28;114393;-59
2022/07/02 01:41:38;;;;;;;11.38;4.40;;;13.30;77.60;;;;;;4095371;28;116124;-59
2022/07/02 01:43:17;;;;;;;17.70;5.85;;;13.30;78.10;;;;;;4097403;28;114638;-59
2022/07/02 01:45:21;;;;;;;13.18;5.18;;;13.30;78.10;;;;;;4096687;28;114247;-59
2022/07/02 01:47:29;;;;;;;11.88;5.43;;;13.30;78.00;;;;;;4096668;28;114978;-59
2022/07/02 01:49:34;;;;;;;10.98;4.35;;;13.30;78.10;;;;;;4095009;28;114359;-59
2022/07/02 01:51:39;;;;;;;8.95;4.97;;;13.30;78.10;;;;;;4095925;28;113760;-60
2022/07/02 01:53:43;;;;;;;8.60;4.95;;;13.30;77.90;;;;;;4097020;28;115205;-59
2022/07/02 01:55:47;;;;;;;11.55;4.63;;;13.30;78.20;;;;;;4097056;28;113374;-59
2022/07/02 01:57:51;;;;;;;11.73;5.00;;;13.20;78.30;;;;;;4096144;28;114368;-59
2022/07/02 01:59:54;;;;;;;12.82;4.55;;;13.20;78.20;;;;;;4096626;28;114686;-59
2022/07/02 02:01:57;;;;;;;7.75;4.32;;;13.20;78.40;;;;;;4092244;28;113420;-59
2022/07/02 02:04:00;;;;;;;11.43;4.50;;;13.20;78.50;;;;;;4097034;28;114248;-59
2022/07/02 02:06:04;;;;;;;8.40;4.05;;;13.10;78.80;;;;;;4095804;28;114433;-58
2022/07/02 02:08:07;;;;;;;12.23;4.68;;;13.10;78.60;;;;;;4095020;28;113362;-59
2022/07/02 02:10:10;;;;;;;8.35;4.25;;;13.10;79.00;;;;;;4095338;28;114560;-59
2022/07/02 02:12:15;;;;;;;11.40;4.60;;;13.10;78.90;;;;;;4096219;28;114343;-60
2022/07/02 02:14:18;;;;;;;10.65;4.82;;;13.10;79.10;;;;;;4096236;28;114224;-60
2022/07/02 02:16:21;;;;;;;12.07;5.05;;;13.10;79.20;;;;;;4095955;28;114427;-59
2022/07/02 02:18:25;;;;;;;10.00;4.35;;;13.10;79.40;;;;;;4094817;28;114300;-60
2022/07/02 02:20:28;;;;;;;12.57;4.10;;;13.10;79.70;;;;;;4097145;28;114373;-60
2022/07/02 02:22:31;;;;;;;10.50;4.65;;;13.10;80.10;;;;;;4096661;28;114216;-59
2022/07/02 02:24:34;;;;;;;6.07;3.72;;;13.10;80.00;;;;;;4096386;28;114704;-60
2022/07/02 02:26:38;;;;;;;10.30;4.57;;;13.10;80.20;;;;;;4095041;28;114631;-59
2022/07/02 02:28:42;;;;;;;9.88;4.40;;;13.10;80.00;;;;;;4096408;28;113753;-59
2022/07/02 02:30:45;;;;;;;13.18;5.30;;;13.00;80.10;;;;;;4095573;28;114266;-59
2022/07/02 02:32:48;;;;;;;10.60;5.70;;;13.10;80.00;;;;;;4096211;28;113576;-60
2022/07/02 02:34:51;;;;;;;15.20;5.80;;;13.10;80.40;;;;;;4095021;28;113924;-60
2022/07/02 02:36:54;;;;;;;11.13;5.85;;;13.10;80.70;;;;;;4095278;28;114254;-60
2022/07/02 02:38:57;;;;;;;10.18;5.55;;;13.10;80.50;;;;;;4096593;28;114386;-60
2022/07/02 02:41:00;;;;;;;9.70;4.78;;;13.10;80.40;;;;;;4096004;28;115067;-60
2022/07/02 02:43:04;;;;;;;11.32;5.07;;;13.00;80.70;;;;;;4095636;28;114976;-60
2022/07/02 02:45:09;;;;;;;9.65;5.15;;;13.10;81.00;;;;;;4094117;28;114512;-59
2022/07/02 02:47:12;;;;;;;10.98;5.60;;;13.00;80.90;;;;;;4095360;28;114327;-60
2022/07/02 02:49:15;;;;;;;11.57;5.30;;;13.00;80.60;;;;;;4095320;28;114572;-59
2022/07/02 02:51:18;;;;;;;9.43;5.60;;;13.00;80.60;;;;;;4095508;28;114529;-60
2022/07/02 02:53:21;;;;;;;12.80;6.20;;;13.00;81.20;;;;;;4095342;28;114459;-60
2022/07/02 02:55:24;;;;;;;8.30;5.13;;;13.00;80.80;;;;;;4095114;28;113813;-59
2022/07/02 02:57:28;;;;;;;10.00;5.88;;;13.10;81.30;;;;;;4094565;28;114060;-59
2022/07/02 02:59:31;;;;;;;11.65;5.25;;;13.00;81.70;;;;;;4094332;28;114305;-60
2022/07/02 03:01:35;;;;;;;15.15;6.43;;;13.00;81.30;;;;;;4094417;28;113416;-60
2022/07/02 03:03:38;;;;;;;12.75;5.10;;;13.00;81.30;;;;;;4093510;28;114545;-60
2022/07/02 03:05:42;;;;;;;11.07;6.07;;;13.00;81.60;;;;;;4094786;28;113501;-60
2022/07/02 03:07:45;;;;;;;14.40;6.07;;;13.00;81.40;;;;;;4093964;28;117813;-60
2022/07/02 03:09:48;;;;;;;12.73;6.57;;;13.00;81.30;;;;;;4094966;28;114311;-60
2022/07/02 03:11:57;;;;;;;14.60;6.22;;;13.00;81.40;;;;;;4093720;28;113482;-59
2022/07/02 03:14:00;;;;;;;13.52;5.38;;;13.00;81.50;;;;;;4094398;28;113357;-60
2022/07/02 03:16:04;;;;;;;11.45;5.78;;;13.00;81.50;;;;;;4094566;28;113399;-60
2022/07/02 03:18:08;;;;;;;12.35;6.38;;;13.00;81.70;;;;;;4094863;28;113500;-60
2022/07/02 03:20:12;;;;;;;13.82;6.78;;;13.00;81.60;;;;;;4094701;28;114561;-60
2022/07/02 03:22:15;;;;;;;10.38;5.78;;;13.00;81.60;;;;;;4093362;28;114103;-60
2022/07/02 03:24:18;;;;;;;12.90;6.38;;;13.00;81.60;;;;;;4094164;28;115046;-60
2022/07/02 03:26:21;;;;;;;13.48;6.97;;;13.00;81.60;;;;;;4094134;28;114563;-60
2022/07/02 03:28:24;;;;;;;13.43;6.63;;;13.00;82.10;;;;;;4094362;28;113923;-60
2022/07/02 03:30:28;;;;;;;13.00;6.22;;;13.00;82.00;;;;;;4094559;28;114862;-60
2022/07/02 03:32:31;;;;;;;14.35;6.18;;;13.00;82.00;;;;;;4093605;28;114062;-60
2022/07/02 03:34:36;;;;;;;13.18;5.65;;;13.00;82.00;;;;;;4094378;28;114266;-59
2022/07/02 03:36:39;;;;;;;12.18;5.95;;;13.00;82.40;;;;;;4094460;28;114325;-60
2022/07/02 03:38:42;;;;;;;14.38;6.50;;;13.00;82.30;;;;;;4094424;28;113443;-59
2022/07/02 03:40:45;;;;;;;13.70;7.18;;;13.00;82.20;;;;;;4094304;28;115024;-59
2022/07/02 03:42:48;;;;;;;13.63;7.03;;;13.10;82.40;;;;;;4093476;28;113341;-60
2022/07/02 03:44:51;;;;;;;19.08;7.65;;;13.10;82.30;;;;;;4093043;28;114258;-60
2022/07/02 03:46:55;;;;;;;13.63;7.53;;;13.00;82.10;;;;;;4094079;28;113346;-60
2022/07/02 03:48:58;;;;;;;11.55;6.97;;;13.10;82.50;;;;;;4093844;28;113279;-59
2022/07/02 03:51:02;;;;;;;18.63;7.07;;;13.10;82.20;;;;;;4092502;28;113403;-60
2022/07/02 03:53:05;;;;;;;15.95;6.70;;;13.10;82.30;;;;;;4094437;28;115018;-59
2022/07/02 03:55:09;;;;;;;16.52;8.20;;;13.10;82.30;;;;;;4093603;28;113405;-60
2022/07/02 03:57:12;;;;;;;19.05;8.50;;;13.10;82.30;;;;;;4094030;28;114447;-60
2022/07/02 03:59:15;;;;;;;16.23;7.82;;;13.10;82.40;;;;;;4093046;28;116279;-60
2022/07/02 04:01:19;;;;;;;12.25;6.78;;;13.20;82.50;;;;;;4094095;28;113513;-61
2022/07/02 04:03:22;;;;;;;17.40;7.80;;;13.20;82.40;;;;;;4094052;28;114523;-60
2022/07/02 04:05:25;;;;;;;17.58;7.80;;;13.20;82.60;;;;;;4094564;28;113579;-59
2022/07/02 04:07:29;;;;;;;17.10;8.52;;;13.20;82.50;;;;;;4092317;28;114328;-59
2022/07/02 04:09:33;;;;;;;15.70;8.35;;;13.20;83.30;;;;;;4094497;28;114338;-59
2022/07/02 04:11:36;;;;;;;15.35;8.35;;;13.20;82.70;;;;;;4094326;28;116283;-60
2022/07/02 04:13:39;;;;;;;16.40;8.13;;;13.30;82.80;;;;;;4094098;28;113535;-59
2022/07/02 04:15:42;;;;;;;20.75;8.50;;;13.30;82.80;;;;;;4093669;28;114744;-59
2022/07/02 04:17:45;;;;;;;18.92;8.52;;;13.30;82.80;;;;;;4092546;28;113751;-59
2022/07/02 04:19:48;;;;;;;15.93;8.75;;;13.30;82.90;;;;;;4094550;28;114273;-60
2022/07/02 04:21:51;;;;;;;21.95;9.27;;;13.30;82.80;;;;;;4110895;28;114275;-59
2022/07/02 04:23:56;;;;;;;20.15;8.63;;;13.40;82.90;;;;;;4094046;28;114439;-59
2022/07/02 04:25:59;;;;;;;21.52;9.38;;;13.40;83.30;;;;;;4093660;28;113513;-59
2022/07/02 04:28:02;;;;;;;22.05;8.38;;;13.40;82.80;;;;;;4092942;28;114236;-59
2022/07/02 04:30:07;;;;;;;12.10;7.05;;;13.50;83.20;;;;;;4093810;28;113592;-59
2022/07/02 04:32:11;;;;;;;13.57;8.10;;;13.50;83.30;;;;;;4093659;28;114360;-59
2022/07/02 04:34:14;;;;;;;27.08;8.43;;;13.50;83.20;;;;;;4093162;28;114246;-60
2022/07/02 04:36:17;;;;;;;13.48;7.93;;;13.60;83.00;;;;;;4092134;28;114446;-60
2022/07/02 04:38:20;;;;;;;13.95;7.82;;;13.60;83.40;;;;;;4093050;28;114641;-59
2022/07/02 04:40:25;;;;;;;13.43;7.60;;;13.70;83.30;;;;;;4093655;28;114672;-60
2022/07/02 04:42:29;;;;;;;13.35;6.68;;;13.70;83.10;;;;;;4093624;28;114550;-60
2022/07/02 04:44:33;;;;;;;12.18;6.88;;;13.70;82.90;;;;;;4092420;28;114138;-59
2022/07/02 04:46:43;;;;;;;13.98;7.00;;;13.80;83.00;;;;;;4093364;28;113623;-60
2022/07/02 04:48:47;;;;;;;11.45;7.03;;;13.80;82.90;;;;;;4092817;28;114938;-59
2022/07/02 04:50:50;;;;;;;16.80;7.07;;;13.90;82.90;;;;;;4093149;28;114178;-59
2022/07/02 04:52:54;;;;;;;14.30;7.22;;;13.90;82.90;;;;;;4093406;28;114337;-60
2022/07/02 04:54:57;;;;;;;18.70;6.63;;;14.00;82.80;;;;;;4093902;28;114756;-60
2022/07/02 04:57:02;;;;;;;19.25;7.18;;;14.10;83.00;;;;;;4093277;28;114521;-59
2022/07/02 04:59:05;;;;;;;13.23;6.70;;;14.10;83.00;;;;;;4092811;28;113428;-60
2022/07/02 05:01:09;;;;;;;14.05;6.13;;;14.20;82.70;;;;;;4093678;28;114784;-60
2022/07/02 05:03:12;;;;;;;11.07;6.25;;;14.30;82.80;;;;;;4092018;28;113431;-60
2022/07/02 05:05:15;;;;;;;11.45;5.57;;;14.30;82.60;;;;;;4093826;28;114280;-60
2022/07/02 05:07:19;;;;;;;12.75;6.22;;;14.40;82.50;;;;;;4093042;28;114618;-60
2022/07/02 05:09:28;;;;;;;12.13;6.38;;;14.40;82.40;;;;;;4096082;28;113732;-60
2022/07/02 05:11:32;;;;;;;13.18;5.35;;;14.50;82.30;;;;;;4096137;28;114455;-60
2022/07/02 05:13:37;;;;;;;14.95;5.95;;;14.60;82.30;;;;;;4095847;28;113920;-60
2022/07/02 05:15:40;;;;;;;10.68;5.20;;;14.70;82.30;;;;;;4095549;28;113560;-60
2022/07/02 05:17:45;;;;;;;16.95;6.50;;;14.70;82.20;;;;;;4095195;28;113857;-60
2022/07/02 05:19:49;;;;;;;12.43;5.40;;;14.80;82.10;;;;;;4095701;28;114444;-59
2022/07/02 05:21:52;;;;;;;12.77;5.70;;;14.90;82.10;;;;;;4094431;28;114685;-59
2022/07/02 05:23:55;;;;;;;11.70;5.40;;;14.90;81.90;;;;;;4096674;28;115264;-60
2022/07/02 05:25:59;;;;;;;17.95;6.95;;;15.00;81.80;;;;;;4095997;28;113598;-60
2022/07/02 05:28:03;;;;;;;12.93;6.00;;;15.10;81.80;;;;;;4095542;28;114882;-60
2022/07/02 05:30:08;;;;;;;16.05;6.85;;;15.20;81.70;;;;;;4094961;28;114216;-61
2022/07/02 05:32:12;;;;;;;12.18;5.65;;;15.30;81.60;;;;;;4096239;28;114342;-59
2022/07/02 05:34:15;;;;;;;13.30;6.50;;;15.40;81.50;;;;;;4092389;28;114597;-60
2022/07/02 05:36:19;;;;;;;14.45;5.40;;;15.50;81.50;;;;;;4080574;28;116034;-59
2022/07/02 05:38:22;;;;;;;12.30;6.60;;;15.60;81.60;;;;;;4094670;28;113937;-61
2022/07/02 05:40:26;;;;;;;13.95;6.00;;;15.70;81.80;;;;;;4094019;28;113749;-60
2022/07/02 05:42:29;;;;;;;11.07;5.65;;;15.80;82.00;;;;;;4096379;28;114652;-60
2022/07/02 05:44:32;;;;;;;13.77;5.82;;;15.90;82.10;;;;;;4096057;28;114273;-61
2022/07/02 05:46:36;;;;;;;11.30;5.13;;;16.00;82.30;;;;;;4095552;28;114270;-61
2022/07/02 05:48:41;;;;;;;11.27;5.60;;;16.20;82.90;;;;;;4095761;28;114603;-60
2022/07/02 05:50:44;;;;;;;8.73;4.70;;;16.40;83.40;;;;;;4094079;28;113992;-60
2022/07/02 05:52:47;;;;;;;8.90;5.00;;;16.60;83.60;;;;;;4095484;28;114589;-60
2022/07/02 05:54:51;;;;;;;12.00;5.18;;;16.90;83.50;;;;;;4095726;28;114277;-61
2022/07/02 05:56:54;;;;;;;9.93;4.78;;;17.30;82.90;;;;;;4094803;28;113376;-60
2022/07/02 05:58:57;;;;;;;7.07;4.90;;;17.70;81.90;;;;;;4095523;28;114638;-61
2022/07/02 06:01:00;;;;;;;11.13;5.32;;;18.10;80.20;;;;;;4095041;28;114192;-61
2022/07/02 06:03:04;;;;;;;8.75;4.50;;;18.60;79.10;;;;;;4095907;28;114336;-61
2022/07/02 06:07:40;;;;;;;9.75;4.82;;;19.40;76.10;;;;;;4092478;28;113380;-60
2022/07/02 06:09:43;;;;;;;9.00;4.00;;;19.90;75.30;;;;;;4096252;28;114318;-60
2022/07/02 06:11:46;;;;;;;10.38;4.25;;;20.30;73.40;;;;;;4095466;28;113346;-61
2022/07/02 06:13:50;;;;;;;7.88;4.00;;;20.60;72.40;;;;;;4096041;28;114176;-60
2022/07/02 06:15:53;;;;;;;11.00;4.03;;;20.90;70.50;;;;;;4093751;28;114516;-61
2022/07/02 06:17:59;;;;;;;7.97;3.45;;;21.20;69.20;;;;;;4092835;28;113968;-61
2022/07/02 06:20:04;;;;;;;10.13;3.90;;;21.50;67.60;;;;;;4094389;28;114771;-61
2022/07/02 06:22:07;;;;;;;8.63;3.67;;;21.90;65.50;;;;;;4095368;28;114403;-60
2022/07/02 06:24:11;;;;;;;12.10;3.90;;;22.20;64.50;;;;;;4094464;28;113468;-60
2022/07/02 06:26:14;;;;;;;6.68;3.45;;;22.60;62.70;;;;;;4093511;28;114143;-61
2022/07/02 06:28:18;;;;;;;8.40;3.83;;;22.90;61.50;;;;;;4095073;28;115973;-61
2022/07/02 06:30:23;;;;;;;7.15;3.78;;;23.40;60.00;;;;;;4094267;28;113438;-61
2022/07/02 06:32:27;;;;;;;10.15;4.40;;;23.80;58.80;;;;;;4094598;28;114934;-61
2022/07/02 06:34:30;;;;;;;7.78;3.58;;;24.30;57.30;;;;;;4093441;28;113338;-61
2022/07/02 06:36:35;;;;;;;10.07;4.47;;;24.60;56.10;;;;;;4094423;28;113361;-58
2022/07/02 06:38:38;;;;;;;7.70;3.47;;;25.00;55.40;;;;;;4095322;28;114346;-60
2022/07/02 06:40:42;;;;;;;11.65;4.65;;;25.40;54.20;;;;;;4094899;28;115054;-60
2022/07/02 06:42:44;;;;;;;7.35;3.63;;;25.80;53.10;;;;;;4095522;28;113382;-60
2022/07/02 06:44:48;;;;;;;8.40;3.40;;;26.10;51.60;;;;;;4094574;28;113333;-60
2022/07/02 06:46:51;;;;;;;14.20;3.67;;;26.40;51.10;;;;;;4093603;28;114194;-60
2022/07/02 06:48:54;;;;;;;7.13;3.38;;;26.80;50.30;;;;;;4094270;28;114777;-60
2022/07/02 06:50:57;;;;;;;7.75;3.70;;;26.90;49.10;;;;;;4093887;28;115253;-60
2022/07/02 06:53:02;;;;;;;5.90;2.30;;;26.90;48.50;;;;;;4094637;28;114570;-60
2022/07/02 06:55:06;;;;;;;9.65;3.08;;;27.00;47.50;;;;;;4094313;28;114309;-60
2022/07/02 06:57:10;;;;;;;8.88;2.75;;;27.10;47.30;;;;;;4094619;28;113711;-60
2022/07/02 06:59:16;;;;;;;6.70;3.15;;;27.30;47.30;;;;;;4093316;28;114220;-60
2022/07/02 07:01:19;;;;;;;6.00;2.70;;;27.70;47.00;;;;;;4094637;28;114157;-59
2022/07/02 07:03:22;;;;;;;7.13;3.35;;;27.60;46.50;;;;;;4094801;28;115440;-60
2022/07/02 07:05:25;;;;;;;5.75;2.58;;;27.80;46.10;;;;;;4094972;28;114349;-60
2022/07/02 07:07:29;;;;;;;8.30;2.70;;;27.80;45.70;;;;;;4093676;28;113696;-59
2022/07/02 07:09:34;;;;;;;6.07;2.63;;;28.20;45.60;;;;;;4093797;28;114123;-59
2022/07/02 07:11:37;;;;;;;6.70;2.63;;;28.40;44.20;;;;;;4093192;28;114427;-60
2022/07/02 07:13:40;;;;;;;7.80;3.00;;;28.50;44.30;;;;;;4094774;28;114222;-60
2022/07/02 07:15:48;;;;;;;7.88;3.03;;;28.50;43.80;;;;;;4094497;28;113537;-60
2022/07/02 07:17:51;;;;;;;7.10;3.13;;;28.50;43.50;;;;;;4093934;28;115041;-60
2022/07/02 07:19:54;;;;;;;11.98;3.83;;;28.50;43.50;;;;;;4093609;28;114341;-60
2022/07/02 07:21:57;;;;;;;10.45;3.38;;;28.40;43.70;;;;;;4094983;28;114598;-59
2022/07/02 07:24:00;;;;;;;10.02;3.63;;;28.40;43.80;;;;;;4093489;28;113436;-60
2022/07/02 07:26:05;;;;;;;8.57;3.30;;;28.40;43.70;;;;;;4094758;28;114025;-59
2022/07/02 07:28:08;;;;;;;7.70;3.67;;;28.60;43.40;;;;;;4094323;28;114221;-63
2022/07/02 07:30:12;;;;;;;12.60;4.20;;;28.70;43.30;;;;;;4092718;28;114187;-60
2022/07/02 07:32:15;;;;;;;7.68;3.55;;;28.80;43.20;;;;;;4093096;28;114573;-60
2022/07/02 07:34:18;;;;;;;10.73;3.55;;;28.80;43.10;;;;;;4093506;28;114297;-61
2022/07/02 07:36:23;;;;;;;8.68;3.55;;;28.40;43.10;;;;;;4093250;28;113988;-60
2022/07/02 07:38:28;;;;;;;6.07;2.60;;;27.80;43.50;;;;;;4091241;28;114545;-61
2022/07/02 07:40:31;;;;;;;5.47;2.80;;;27.40;43.90;;;;;;4094597;28;115039;-60
2022/07/02 07:42:35;;;;;;;9.50;2.58;;;27.10;44.20;;;;;;4093483;28;113415;-60
2022/07/02 07:44:38;;;;;;;9.88;2.30;;;26.80;44.50;;;;;;4093911;28;115382;-61
2022/07/02 07:46:42;;;;;;;8.40;2.50;;;26.70;45.00;;;;;;4094372;28;114259;-60
2022/07/02 07:48:45;;;;;;;7.30;2.33;;;26.90;45.60;;;;;;4092171;28;114826;-59
2022/07/02 07:50:48;;;;;;;9.35;2.67;;;27.40;45.20;;;;;;4093800;28;113560;-60
2022/07/02 07:52:51;;;;;;;9.25;3.08;;;27.70;44.60;;;;;;4094074;28;114763;-61
2022/07/02 07:54:54;;;;;;;5.57;2.15;;;27.90;43.70;;;;;;4093655;28;115105;-61
2022/07/02 07:56:57;;;;;;;7.57;1.92;;;27.80;43.20;;;;;;4094345;28;114726;-61
2022/07/02 07:59:02;;;;;;;5.97;2.10;;;27.70;43.30;;;;;;4094644;28;114238;-60
2022/07/02 08:01:05;;;;;;;5.53;1.90;;;27.80;42.70;;;;;;4093568;28;113352;-61
2022/07/02 08:03:09;;;;;;;6.10;2.00;;;27.80;42.70;;;;;;4093661;28;115036;-61
2022/07/02 08:05:13;;;;;;;5.45;1.60;;;27.50;42.20;;;;;;4093509;28;113909;-60
2022/07/02 08:07:16;;;;;;;7.13;1.75;;;27.10;42.10;;;;;;4092717;28;114326;-60
2022/07/02 08:09:19;;;;;;;6.68;2.00;;;26.70;42.30;;;;;;4093586;28;114330;-61
2022/07/02 08:11:22;;;;;;;8.80;1.90;;;26.90;42.80;;;;;;4094331;28;114331;-61
2022/07/02 08:13:25;;;;;;;4.82;1.77;;;27.30;42.80;;;;;;4094355;28;113489;-60
2022/07/02 08:15:30;;;;;;;6.53;1.80;;;27.90;42.20;;;;;;4093610;28;114268;-61
2022/07/02 08:17:37;;;;;;;7.75;2.08;;;28.40;41.40;;;;;;4089832;28;113622;-60
2022/07/02 08:19:40;;;;;;;5.45;2.03;;;29.00;41.00;;;;;;4093197;28;114635;-60
2022/07/02 08:21:43;;;;;;;7.10;1.80;;;29.50;39.80;;;;;;4094327;28;115010;-60
2022/07/02 08:23:46;;;;;;;4.55;1.40;;;30.00;39.00;;;;;;4093727;28;113367;-61
2022/07/02 08:25:49;;;;;;;4.10;1.25;;;30.20;38.40;;;;;;4092315;28;114819;-61
2022/07/02 08:27:52;;;;;;;5.28;1.80;;;30.40;37.90;;;;;;4091786;28;113922;-60
2022/07/02 08:29:56;;;;;;;8.48;1.85;;;30.50;37.60;;;;;;4093080;28;114715;-61
2022/07/02 08:32:00;;;;;;;7.60;1.83;;;30.60;37.30;;;;;;4094517;28;114255;-61
2022/07/02 08:34:04;;;;;;;7.63;1.63;;;30.30;36.20;;;;;;4092620;28;115092;-60
2022/07/02 08:36:08;;;;;;;6.95;2.00;;;29.90;36.90;;;;;;4091801;28;115630;-61
2022/07/02 08:38:11;;;;;;;6.55;1.27;;;29.80;37.60;;;;;;4092527;28;113418;-61
2022/07/02 08:40:14;;;;;;;4.93;1.20;;;29.80;37.70;;;;;;4125106;28;114236;-60
2022/07/02 08:42:25;;;;;;;8.25;1.40;;;29.70;37.50;;;;;;4098713;28;113934;-61
2022/07/02 08:44:29;;;;;;;6.45;1.50;;;29.80;36.00;;;;;;4090236;28;113365;-61
2022/07/02 08:46:33;;;;;;;5.72;1.55;;;29.80;37.20;;;;;;4088365;28;114306;-60
2022/07/02 08:48:40;;;;;;;5.07;1.58;;;29.80;36.50;;;;;;4089946;28;113669;-61
2022/07/02 08:50:43;;;;;;;5.43;1.38;;;29.50;36.00;;;;;;4086901;28;113743;-60
2022/07/02 08:52:48;;;;;;;7.10;1.83;;;29.30;36.50;;;;;;4087618;28;113429;-60
2022/07/02 08:54:53;;;;;;;4.50;1.20;;;29.40;36.90;;;;;;4085065;28;114410;-60
2022/07/02 08:56:57;;;;;;;6.40;1.10;;;29.30;36.40;;;;;;4094202;28;113360;-61
2022/07/02 08:59:01;;;;;;;7.57;1.50;;;29.10;36.20;;;;;;4088651;28;114198;-60
2022/07/02 09:01:05;;;;;;;5.55;1.30;;;29.00;36.50;;;;;;4085627;28;114107;-61
2022/07/02 09:03:09;;;;;;;9.13;1.30;;;29.10;36.70;;;;;;4095184;28;114195;-60
2022/07/02 09:05:17;;;;;;;7.57;1.63;;;29.10;36.60;;;;;;4093710;28;113473;-60
2022/07/02 09:07:23;;;;;;;2.90;1.17;;;29.00;36.00;;;;;;4090335;28;113323;-60
2022/07/02 09:09:27;;;;;;;6.47;1.42;;;28.90;35.90;;;;;;4094699;28;113803;-60
2022/07/02 09:11:30;;;;;;;6.28;1.30;;;28.90;36.30;;;;;;4091558;28;113591;-61
2022/07/02 09:13:34;;;;;;;3.55;1.10;;;29.10;36.50;;;;;;4086869;28;113490;-61
2022/07/02 09:15:37;;;;;;;7.40;1.25;;;29.20;36.40;;;;;;4099981;28;114213;-60
2022/07/02 09:17:42;;;;;;;5.90;1.65;;;29.30;36.30;;;;;;4090140;28;114836;-61
2022/07/02 09:19:45;;;;;;;4.50;1.10;;;29.30;36.30;;;;;;4089112;28;113241;-61
2022/07/02 09:21:51;;;;;;;3.28;1.30;;;29.30;36.50;;;;;;4101024;28;113334;-61
2022/07/02 09:23:54;;;;;;;3.85;1.45;;;29.50;36.20;;;;;;4098662;28;113314;-61
2022/07/02 09:25:57;;;;;;;5.10;1.45;;;29.70;36.20;;;;;;4101256;28;114005;-61
2022/07/02 09:28:03;;;;;;;3.83;1.30;;;29.80;35.50;;;;;;4100820;28;113980;-61
2022/07/02 09:30:08;;;;;;;4.22;1.23;;;29.80;35.00;;;;;;4092527;28;114326;-61
2022/07/02 09:32:13;;;;;;;5.40;1.13;;;29.30;34.70;;;;;;4090167;28;114127;-61
2022/07/02 09:34:24;;;;;;;6.40;1.52;;;29.10;35.20;;;;;;4098107;28;114522;-61
2022/07/02 09:36:28;;;;;;;5.43;1.23;;;29.40;34.90;;;;;;4096850;28;114301;-61
2022/07/02 09:38:41;;;;;;;5.47;1.17;;;29.70;35.00;;;;;;4096367;28;114201;-61
2022/07/02 09:40:54;;;;;;;8.10;4.57;;;30.20;33.00;;;;;;4097473;28;114225;-60
2022/07/02 09:42:58;;;;;;;7.50;2.60;;;30.70;33.20;;;;;;4100284;28;114348;-61
2022/07/02 09:45:03;;;;;;;3.83;1.10;;;30.80;33.50;;;;;;4098425;28;113414;-61
2022/07/02 09:47:06;;;;;;;4.65;1.13;;;31.20;34.00;;;;;;4098270;28;114438;-60
2022/07/02 09:49:11;;;;;;;2.78;0.98;;;31.60;33.10;;;;;;4089072;28;114154;-60
2022/07/02 09:51:15;;;;;;;5.20;1.35;;;31.90;33.00;;;;;;4089749;28;114236;-61
2022/07/02 09:53:19;;;;;;;7.35;1.58;;;32.30;32.20;;;;;;4089184;28;114429;-60
2022/07/02 09:55:25;;;;;;;6.88;1.10;;;32.50;31.70;;;;;;4086904;28;113447;-60
2022/07/02 09:57:29;;;;;;;3.90;1.00;;;32.60;30.70;;;;;;4084750;28;114486;-60
2022/07/02 09:59:37;;;;;;;2.38;1.00;;;32.60;30.50;;;;;;4086646;28;114239;-60
2022/07/02 10:01:43;;;;;;;1.48;0.75;;;32.70;30.00;;;;;;4085594;28;114254;-60
2022/07/02 10:03:52;;;;;;;2.35;0.82;;;32.80;29.70;;;;;;4084876;28;115371;-60
2022/07/02 10:05:56;;;;;;;3.75;0.95;;;32.80;29.80;;;;;;4084638;28;114325;-60
2022/07/02 10:08:00;;;;;;;3.50;0.95;;;32.50;29.70;;;;;;4093794;28;114245;-60
2022/07/02 10:10:05;;;;;;;3.60;1.23;;;32.40;29.70;;;;;;4085219;28;115570;-60
2022/07/02 10:12:11;;;;;;;3.17;1.00;;;32.40;29.80;;;;;;4092297;28;114044;-60
2022/07/02 10:14:16;;;;;;;4.65;1.30;;;32.40;29.90;;;;;;4094483;28;114511;-60
2022/07/02 10:16:22;;;;;;;3.63;0.90;;;32.60;30.30;;;;;;4093580;28;115189;-60
2022/07/02 10:18:26;;;;;;;4.10;0.98;;;32.90;30.40;;;;;;4097456;28;114751;-60
2022/07/02 10:20:30;;;;;;;4.60;1.08;;;32.90;30.10;;;;;;4088488;28;113495;-60
2022/07/02 10:22:34;;;;;;;3.60;1.10;;;33.10;29.80;;;;;;4097482;28;115089;-60
2022/07/02 10:24:38;;;;;;;3.30;0.93;;;33.10;29.60;;;;;;4093993;28;113995;-60
2022/07/02 10:26:42;;;;;;;4.90;1.08;;;33.10;29.40;;;;;;4093500;28;113921;-60
2022/07/02 10:28:46;;;;;;;4.60;1.27;;;33.00;29.30;;;;;;4084160;28;113939;-61
2022/07/02 10:30:50;;;;;;;5.38;1.23;;;32.90;29.30;;;;;;4091834;28;114729;-60
2022/07/02 10:33:08;;;;;;;3.00;1.10;;;32.80;29.20;;;;;;4087281;28;113532;-61
2022/07/02 10:35:14;;;;;;;3.05;1.10;;;32.60;28.70;;;;;;4100011;28;114188;-60
2022/07/02 10:37:18;;;;;;;3.55;1.30;;;32.20;29.00;;;;;;4089974;28;114623;-60